Time;durP1;ratioP1;P1;durP2;ratioP2;P2;SDS_P1;SDS_P2;PMS_P1;PMS_P2;Temp;Humidity;BMP_temperature;BMP_pressure;BME280_temperature;BME280_humidity;BME280_pressure;Samples;Min_cycle;Max_cycle;Signal;HPM_P1;HPM_P2
2021/10/05 00:01:42;;;;;;;1.50;0.32;;;15.20;54.60;;;;;;20717542;28;81819;-69
2021/10/05 00:11:43;;;;;;;2.97;0.50;;;15.30;53.90;;;;;;20716452;28;80613;-70
2021/10/05 00:21:45;;;;;;;1.75;0.28;;;15.20;53.80;;;;;;20712614;28;81104;-69
2021/10/05 00:31:48;;;;;;;2.77;0.30;;;15.00;54.20;;;;;;20716180;28;80817;-69
2021/10/05 00:41:50;;;;;;;2.27;0.20;;;15.00;54.30;;;;;;20714624;28;79965;-69
2021/10/05 00:51:53;;;;;;;0.90;0.20;;;15.00;54.60;;;;;;20716063;28;80689;-70
2021/10/05 01:01:55;;;;;;;2.17;0.30;;;14.90;54.80;;;;;;20715814;28;81794;-68
2021/10/05 01:11:57;;;;;;;1.30;0.20;;;14.90;54.90;;;;;;20715048;28;81678;-67
2021/10/05 01:22:00;;;;;;;1.13;0.20;;;14.90;54.90;;;;;;20707247;28;80964;-68
2021/10/05 01:32:06;;;;;;;2.88;0.75;;;15.00;54.70;;;;;;20704280;28;80778;-68
2021/10/05 01:42:13;;;;;;;1.48;0.20;;;14.90;55.60;;;;;;20706201;28;81857;-69
2021/10/05 01:52:23;;;;;;;5.18;0.90;;;14.80;56.50;;;;;;20719789;28;80455;-67
2021/10/05 02:02:36;;;;;;;1.83;0.40;;;14.60;57.80;;;;;;20718327;28;81897;-67
2021/10/05 02:12:44;;;;;;;1.70;0.30;;;14.50;58.50;;;;;;20715956;28;80734;-67
2021/10/05 02:22:52;;;;;;;2.05;0.32;;;14.50;58.60;;;;;;20721089;28;81227;-69
2021/10/05 02:32:55;;;;;;;2.22;0.32;;;14.50;58.60;;;;;;20724858;28;81657;-69
2021/10/05 02:42:58;;;;;;;3.28;0.30;;;14.50;58.70;;;;;;20722858;28;80589;-69
2021/10/05 02:53:01;;;;;;;1.98;0.20;;;14.40;59.00;;;;;;20720798;28;80298;-69
2021/10/05 03:03:03;;;;;;;3.83;0.30;;;14.40;59.00;;;;;;20713552;28;80804;-69
2021/10/05 03:13:08;;;;;;;1.50;0.40;;;14.40;58.90;;;;;;20712291;28;80988;-68
2021/10/05 03:23:13;;;;;;;1.42;0.40;;;14.40;58.90;;;;;;20718318;28;80782;-68
2021/10/05 03:33:16;;;;;;;3.58;0.20;;;14.50;58.30;;;;;;20720438;28;80752;-68
2021/10/05 03:43:19;;;;;;;2.40;0.40;;;14.70;57.50;;;;;;20736499;28;80588;-67
2021/10/05 03:53:21;;;;;;;2.43;0.40;;;14.90;57.50;;;;;;20773266;28;80700;-67
2021/10/05 04:03:24;;;;;;;2.20;0.30;;;15.10;57.80;;;;;;20801712;28;82479;-67
2021/10/05 04:13:27;;;;;;;0.77;0.33;;;15.20;58.20;;;;;;20783714;28;81030;-67
2021/10/05 04:23:29;;;;;;;2.35;0.75;;;14.90;59.10;;;;;;20723471;28;80782;-69
2021/10/05 04:33:32;;;;;;;3.28;1.15;;;14.70;60.20;;;;;;20717909;28;81937;-70
2021/10/05 04:43:35;;;;;;;3.38;0.77;;;14.70;60.90;;;;;;20717484;28;82181;-69
2021/10/05 04:53:37;;;;;;;2.77;0.63;;;14.80;59.70;;;;;;20716541;28;80632;-69
2021/10/05 05:03:41;;;;;;;5.72;0.93;;;14.60;59.30;;;;;;20715222;28;79934;-69
2021/10/05 05:13:43;;;;;;;3.90;1.23;;;14.50;60.10;;;;;;20714268;28;80830;-69
2021/10/05 05:23:45;;;;;;;5.18;1.23;;;14.50;60.90;;;;;;20710749;28;81392;-68
2021/10/05 05:33:48;;;;;;;2.77;1.33;;;14.50;60.00;;;;;;20714874;28;80866;-68
2021/10/05 05:43:49;;;;;;;4.88;1.20;;;14.30;60.30;;;;;;20716780;28;81798;-69
2021/10/05 05:53:51;;;;;;;4.65;1.60;;;14.30;61.10;;;;;;20711545;28;81520;-71
2021/10/05 06:03:53;;;;;;;10.00;1.83;;;14.10;62.20;;;;;;20715868;28;80908;-67
2021/10/05 06:13:55;;;;;;;12.48;2.60;;;14.20;62.90;;;;;;20727589;28;81451;-60
2021/10/05 06:23:59;;;;;;;17.65;2.70;;;14.10;63.70;;;;;;20716481;28;81961;-64
2021/10/05 06:34:02;;;;;;;10.35;2.40;;;14.10;64.20;;;;;;20713779;28;81244;-61
2021/10/05 06:44:04;;;;;;;9.50;2.45;;;14.00;63.70;;;;;;20714265;28;81441;-62
2021/10/05 06:54:06;;;;;;;9.45;2.63;;;14.00;63.70;;;;;;20706786;28;81935;-62
2021/10/05 07:04:10;;;;;;;9.50;2.72;;;14.20;63.80;;;;;;20701668;28;81962;-65
2021/10/05 07:14:12;;;;;;;7.63;3.40;;;14.30;63.30;;;;;;20703313;28;82393;-66
2021/10/05 07:24:14;;;;;;;8.80;3.42;;;14.60;62.00;;;;;;20706652;28;80819;-71
2021/10/05 07:34:28;;;;;;;7.22;2.72;;;15.20;60.60;;;;;;20706415;28;82039;-68
2021/10/05 07:44:32;;;;;;;6.18;1.60;;;15.50;58.70;;;;;;20706269;28;82096;-69
2021/10/05 07:54:34;;;;;;;8.68;1.17;;;15.90;57.20;;;;;;20708050;28;82368;-67
2021/10/05 08:04:36;;;;;;;5.65;2.05;;;15.90;57.30;;;;;;20709368;28;81329;-62
2021/10/05 08:14:39;;;;;;;5.90;1.20;;;16.20;57.20;;;;;;20706576;28;83412;-61
2021/10/05 08:24:41;;;;;;;;;;;16.30;57.30;;;;;;20707805;28;82041;-63
2021/10/05 08:34:44;;;;;;;8.00;2.30;;;16.70;55.70;;;;;;21375364;22;81758;-60
2021/10/05 08:44:46;;;;;;;5.43;1.33;;;17.20;54.40;;;;;;20718968;28;80132;-60
2021/10/05 08:54:49;;;;;;;5.38;1.10;;;17.50;53.50;;;;;;20719530;28;81815;-60
2021/10/05 09:04:56;;;;;;;3.28;1.10;;;17.90;53.20;;;;;;20731738;28;80836;-60
2021/10/05 09:15:01;;;;;;;4.32;1.30;;;19.40;49.90;;;;;;20732007;28;79790;-60
2021/10/05 09:25:10;;;;;;;4.25;0.60;;;19.90;49.30;;;;;;20719356;28;81183;-60
2021/10/05 09:35:13;;;;;;;2.25;0.30;;;20.50;48.30;;;;;;20718081;28;81940;-60
2021/10/05 09:45:24;;;;;;;9.90;0.93;;;22.40;45.10;;;;;;20716087;28;81662;-58
2021/10/05 09:55:34;;;;;;;2.25;0.60;;;24.40;41.60;;;;;;20717877;28;81121;-60
2021/10/05 10:05:38;;;;;;;0.93;0.25;;;26.40;39.10;;;;;;20716013;28;81816;-59
2021/10/05 10:15:43;;;;;;;2.63;0.47;;;27.60;37.40;;;;;;20714713;28;81675;-60
2021/10/05 10:26:19;;;;;;;2.70;0.10;;;29.60;34.50;;;;;;20706588;28;81724;-60
2021/10/05 10:36:41;;;;;;;3.47;0.55;;;31.30;32.10;;;;;;20712515;28;81358;-58
2021/10/05 10:46:43;;;;;;;2.08;0.40;;;33.10;29.40;;;;;;20714273;28;81605;-61
2021/10/05 10:56:56;;;;;;;0.85;0.20;;;36.40;25.70;;;;;;20713295;28;81785;-60
2021/10/05 11:06:58;;;;;;;1.15;0.40;;;37.70;24.50;;;;;;20707980;28;81559;-62
2021/10/05 11:17:09;;;;;;;1.08;0.30;;;37.60;24.80;;;;;;20711991;28;82119;-61
2021/10/05 11:27:23;;;;;;;2.25;0.40;;;32.00;30.90;;;;;;20709289;28;81089;-59
2021/10/05 11:37:25;;;;;;;0.88;0.25;;;32.20;31.40;;;;;;20711218;28;81401;-60
2021/10/05 11:47:29;;;;;;;2.00;0.70;;;34.50;28.00;;;;;;20711354;28;80954;-61
2021/10/05 11:57:34;;;;;;;0.40;0.10;;;31.30;32.30;;;;;;20704834;28;81172;-61
2021/10/05 12:07:38;;;;;;;3.35;0.73;;;37.40;25.40;;;;;;20707902;28;81926;-60
2021/10/05 12:17:41;;;;;;;0.40;0.20;;;34.90;27.70;;;;;;20705988;28;80394;-61
2021/10/05 12:27:49;;;;;;;1.13;0.28;;;31.90;31.20;;;;;;20699920;28;80563;-60
2021/10/05 12:37:57;;;;;;;1.15;0.30;;;29.60;34.00;;;;;;20702892;28;81701;-60
2021/10/05 12:48:04;;;;;;;1.27;0.40;;;30.60;33.30;;;;;;20703227;28;80743;-60
2021/10/05 12:58:07;;;;;;;1.80;0.38;;;31.00;32.50;;;;;;20703316;28;81675;-60
2021/10/05 13:08:10;;;;;;;2.05;0.20;;;33.20;28.40;;;;;;20708918;28;82272;-61
2021/10/05 13:18:12;;;;;;;1.73;0.20;;;32.40;29.00;;;;;;20715620;28;81750;-61
2021/10/05 13:28:16;;;;;;;1.77;0.30;;;30.50;31.80;;;;;;20716016;28;80841;-60
2021/10/05 13:38:22;;;;;;;3.70;0.50;;;28.80;34.10;;;;;;20715843;28;81700;-61
2021/10/05 13:48:25;;;;;;;16.17;1.77;;;27.00;36.60;;;;;;20729180;28;81068;-61
2021/10/05 13:58:28;;;;;;;20.65;3.25;;;26.20;38.50;;;;;;20729938;28;80707;-61
2021/10/05 14:08:30;;;;;;;2.63;0.70;;;25.90;39.10;;;;;;20729452;28;80906;-60
2021/10/05 14:18:33;;;;;;;3.67;0.40;;;26.00;39.40;;;;;;20729679;28;81959;-60
2021/10/05 14:28:35;;;;;;;3.70;0.30;;;26.40;38.70;;;;;;20729372;28;80635;-59
2021/10/05 14:38:38;;;;;;;6.38;0.68;;;26.20;39.40;;;;;;20726031;28;80954;-59
2021/10/05 14:48:42;;;;;;;5.78;0.50;;;25.70;40.40;;;;;;20719733;28;83094;-59
2021/10/05 14:58:44;;;;;;;8.35;0.82;;;25.60;40.60;;;;;;20721854;28;82673;-61
2021/10/05 15:08:46;;;;;;;7.05;0.55;;;25.60;40.90;;;;;;20726028;28;79962;-61
2021/10/05 15:18:48;;;;;;;3.15;0.50;;;25.30;42.10;;;;;;20724702;28;80779;-62
2021/10/05 15:28:53;;;;;;;1.83;0.28;;;25.00;42.90;;;;;;20724336;28;80871;-60
2021/10/05 15:38:55;;;;;;;3.83;1.63;;;24.80;43.50;;;;;;20701736;28;80416;-61
2021/10/05 15:48:58;;;;;;;2.63;0.30;;;25.20;43.00;;;;;;20719464;28;80816;-61
2021/10/05 15:59:02;;;;;;;2.03;1.00;;;25.60;42.60;;;;;;20722390;28;80008;-62
2021/10/05 16:09:04;;;;;;;1.85;0.30;;;25.50;42.90;;;;;;20722147;28;80712;-60
2021/10/05 16:19:06;;;;;;;0.80;0.25;;;24.80;44.50;;;;;;20722432;28;81793;-62
2021/10/05 16:29:08;;;;;;;1.33;0.22;;;24.30;45.40;;;;;;20719968;28;82270;-60
2021/10/05 16:39:10;;;;;;;1.98;0.17;;;23.80;46.40;;;;;;20721209;28;80671;-60
2021/10/05 16:49:11;;;;;;;1.17;0.30;;;23.40;47.20;;;;;;20720318;28;81633;-61
2021/10/05 16:59:13;;;;;;;1.17;0.30;;;23.20;47.80;;;;;;20719575;28;81816;-60
2021/10/05 17:09:16;;;;;;;4.60;1.10;;;23.00;48.00;;;;;;20718447;28;81018;-61
2021/10/05 17:19:19;;;;;;;2.17;0.35;;;22.80;48.40;;;;;;20720565;28;80726;-61
2021/10/05 17:29:21;;;;;;;1.15;0.45;;;22.40;49.10;;;;;;20726832;28;80741;-61
2021/10/05 17:39:24;;;;;;;2.90;0.65;;;22.10;49.60;;;;;;20728675;28;81935;-67
2021/10/05 17:49:32;;;;;;;1.23;0.50;;;22.10;50.10;;;;;;20730527;28;82361;-67
2021/10/05 17:59:34;;;;;;;2.05;0.80;;;22.10;50.60;;;;;;20729428;28;80556;-67
2021/10/05 18:09:36;;;;;;;2.58;0.30;;;21.90;51.00;;;;;;20729397;28;82216;-71
2021/10/05 18:19:40;;;;;;;1.80;0.50;;;21.80;51.40;;;;;;20728025;28;81979;-70
2021/10/05 18:29:44;;;;;;;3.38;0.93;;;21.50;51.90;;;;;;20727195;28;80986;-68
2021/10/05 18:39:46;;;;;;;2.72;0.30;;;21.20;52.80;;;;;;20727637;28;81216;-70
2021/10/05 18:49:51;;;;;;;1.93;0.40;;;21.00;53.20;;;;;;20727388;28;80807;-68
2021/10/05 18:59:54;;;;;;;2.30;0.60;;;20.90;53.90;;;;;;20724852;28;80795;-71
2021/10/05 19:09:57;;;;;;;2.85;1.50;;;20.80;55.00;;;;;;20725761;28;81030;-70
2021/10/05 19:19:59;;;;;;;2.03;0.73;;;20.50;55.90;;;;;;20725110;28;80948;-69
2021/10/05 19:30:01;;;;;;;1.67;0.63;;;20.30;56.60;;;;;;20722510;28;80758;-69
2021/10/05 19:40:04;;;;;;;3.75;0.85;;;20.20;57.00;;;;;;20723049;28;81048;-69
2021/10/05 19:50:08;;;;;;;2.42;0.80;;;20.00;57.60;;;;;;20721686;28;80188;-70
2021/10/05 20:00:12;;;;;;;2.83;0.75;;;19.90;57.90;;;;;;20721632;28;80564;-72
2021/10/05 20:10:15;;;;;;;3.35;1.58;;;19.70;59.00;;;;;;20721609;28;80953;-69
2021/10/05 20:20:18;;;;;;;3.47;1.27;;;19.50;59.90;;;;;;20720500;28;79985;-69
2021/10/05 20:30:22;;;;;;;9.60;2.70;;;19.20;60.90;;;;;;20720318;28;80763;-69
2021/10/05 20:40:24;;;;;;;2.50;0.70;;;19.00;61.40;;;;;;20718695;28;80703;-67
2021/10/05 20:50:26;;;;;;;2.63;1.00;;;19.00;60.90;;;;;;20718612;28;80503;-66
2021/10/05 21:00:28;;;;;;;3.43;0.80;;;19.00;61.50;;;;;;20718065;28;80097;-68
2021/10/05 21:10:31;;;;;;;4.63;1.73;;;18.90;61.70;;;;;;20718341;28;81879;-67
2021/10/05 21:20:34;;;;;;;2.92;0.60;;;18.80;62.00;;;;;;20718413;28;80719;-66
2021/10/05 21:30:37;;;;;;;1.50;0.68;;;18.80;62.30;;;;;;20717349;28;80784;-68
2021/10/05 21:40:41;;;;;;;2.45;1.02;;;18.70;62.30;;;;;;20715379;28;81158;-67
2021/10/05 21:50:43;;;;;;;2.45;0.80;;;18.60;62.80;;;;;;20716625;28;80807;-67
2021/10/05 22:00:45;;;;;;;3.07;1.00;;;18.50;63.30;;;;;;20716289;28;80533;-67
2021/10/05 22:10:47;;;;;;;3.43;1.00;;;18.40;63.80;;;;;;20730111;28;81691;-66
2021/10/05 22:20:49;;;;;;;2.97;1.47;;;18.30;64.40;;;;;;20728649;28;80113;-67
2021/10/05 22:30:52;;;;;;;4.53;1.70;;;18.10;64.90;;;;;;20726971;28;80744;-66
2021/10/05 22:40:54;;;;;;;5.70;1.95;;;18.00;65.30;;;;;;20727270;28;81788;-68
2021/10/05 22:50:56;;;;;;;3.35;1.10;;;17.90;65.20;;;;;;20725627;28;80183;-69
2021/10/05 23:00:58;;;;;;;3.47;0.80;;;17.90;65.20;;;;;;20725572;28;80543;-69
2021/10/05 23:11:01;;;;;;;3.65;1.55;;;17.90;65.50;;;;;;20725555;28;80713;-69
2021/10/05 23:21:03;;;;;;;1.97;0.83;;;17.90;65.70;;;;;;20722916;28;80983;-68
2021/10/05 23:31:09;;;;;;;3.40;0.40;;;17.80;65.80;;;;;;20721807;28;80666;-69
2021/10/05 23:41:11;;;;;;;3.13;0.60;;;17.70;66.00;;;;;;20721920;28;82042;-69
2021/10/05 23:51:14;;;;;;;1.20;0.40;;;17.70;66.30;;;;;;20720642;28;80729;-69
